sensor_id;sensor_type;location;lat;lon;timestamp;P1;durP1;ratioP1;P2;durP2;ratioP2
9392;SDS011;4736;52.508;13.422;2022-09-09T00:02:28;8.00;;;7.60;;
9392;SDS011;4736;52.508;13.422;2022-09-09T00:05:33;8.87;;;8.17;;
9392;SDS011;4736;52.508;13.422;2022-09-09T00:08:45;9.17;;;8.37;;
9392;SDS011;4736;52.508;13.422;2022-09-09T00:11:58;10.33;;;9.53;;
9392;SDS011;4736;52.508;13.422;2022-09-09T00:15:07;9.77;;;9.13;;
9392;SDS011;4736;52.508;13.422;2022-09-09T00:18:21;9.77;;;9.17;;
9392;SDS011;4736;52.508;13.422;2022-09-09T00:21:29;10.67;;;9.87;;
9392;SDS011;4736;52.508;13.422;2022-09-09T00:24:37;9.53;;;9.03;;
9392;SDS011;4736;52.508;13.422;2022-09-09T00:27:44;8.67;;;8.17;;
9392;SDS011;4736;52.508;13.422;2022-09-09T00:30:48;9.63;;;9.03;;
9392;SDS011;4736;52.508;13.422;2022-09-09T00:33:53;10.03;;;9.30;;
9392;SDS011;4736;52.508;13.422;2022-09-09T00:37:03;10.00;;;9.30;;
9392;SDS011;4736;52.508;13.422;2022-09-09T00:40:08;8.63;;;8.13;;
9392;SDS011;4736;52.508;13.422;2022-09-09T00:43:26;11.00;;;10.03;;
9392;SDS011;4736;52.508;13.422;2022-09-09T00:46:48;10.50;;;9.80;;
9392;SDS011;4736;52.508;13.422;2022-09-09T00:50:02;12.23;;;11.23;;
9392;SDS011;4736;52.508;13.422;2022-09-09T00:53:18;12.70;;;11.80;;
9392;SDS011;4736;52.508;13.422;2022-09-09T00:56:29;11.33;;;10.50;;
9392;SDS011;4736;52.508;13.422;2022-09-09T00:59:46;10.47;;;9.77;;
9392;SDS011;4736;52.508;13.422;2022-09-09T01:03:07;11.27;;;10.27;;
9392;SDS011;4736;52.508;13.422;2022-09-09T01:06:34;10.03;;;9.47;;
9392;SDS011;4736;52.508;13.422;2022-09-09T01:09:42;9.30;;;8.70;;
9392;SDS011;4736;52.508;13.422;2022-09-09T01:12:53;10.03;;;9.37;;
9392;SDS011;4736;52.508;13.422;2022-09-09T01:16:01;10.87;;;10.27;;
9392;SDS011;4736;52.508;13.422;2022-09-09T01:19:07;11.30;;;10.60;;
9392;SDS011;4736;52.508;13.422;2022-09-09T01:22:22;9.97;;;9.37;;
9392;SDS011;4736;52.508;13.422;2022-09-09T01:29:14;10.57;;;9.87;;
9392;SDS011;4736;52.508;13.422;2022-09-09T01:35:45;10.60;;;9.80;;
9392;SDS011;4736;52.508;13.422;2022-09-09T01:38:52;10.03;;;9.43;;
9392;SDS011;4736;52.508;13.422;2022-09-09T01:41:55;9.13;;;8.53;;
9392;SDS011;4736;52.508;13.422;2022-09-09T01:45:00;9.17;;;8.67;;
9392;SDS011;4736;52.508;13.422;2022-09-09T01:48:04;7.73;;;7.23;;
9392;SDS011;4736;52.508;13.422;2022-09-09T01:51:07;9.10;;;8.60;;
9392;SDS011;4736;52.508;13.422;2022-09-09T01:54:11;9.63;;;8.83;;
9392;SDS011;4736;52.508;13.422;2022-09-09T01:57:15;9.57;;;8.83;;
9392;SDS011;4736;52.508;13.422;2022-09-09T02:00:24;9.03;;;8.43;;
9392;SDS011;4736;52.508;13.422;2022-09-09T02:03:28;9.80;;;8.93;;
9392;SDS011;4736;52.508;13.422;2022-09-09T02:06:35;10.53;;;9.83;;
9392;SDS011;4736;52.508;13.422;2022-09-09T02:09:43;9.90;;;8.90;;
9392;SDS011;4736;52.508;13.422;2022-09-09T02:12:53;9.10;;;8.50;;
9392;SDS011;4736;52.508;13.422;2022-09-09T02:16:03;10.13;;;9.40;;
9392;SDS011;4736;52.508;13.422;2022-09-09T02:19:11;10.13;;;9.50;;
9392;SDS011;4736;52.508;13.422;2022-09-09T02:22:17;10.17;;;9.20;;
9392;SDS011;4736;52.508;13.422;2022-09-09T02:25:25;10.63;;;9.80;;
9392;SDS011;4736;52.508;13.422;2022-09-09T02:28:31;10.20;;;9.50;;
9392;SDS011;4736;52.508;13.422;2022-09-09T02:31:37;10.40;;;9.70;;
9392;SDS011;4736;52.508;13.422;2022-09-09T02:34:42;8.60;;;7.90;;
9392;SDS011;4736;52.508;13.422;2022-09-09T02:37:49;10.53;;;9.80;;
9392;SDS011;4736;52.508;13.422;2022-09-09T02:40:55;10.17;;;9.47;;
9392;SDS011;4736;52.508;13.422;2022-09-09T02:43:59;10.40;;;9.60;;
9392;SDS011;4736;52.508;13.422;2022-09-09T02:47:10;9.90;;;9.10;;
9392;SDS011;4736;52.508;13.422;2022-09-09T02:50:25;7.90;;;7.50;;
9392;SDS011;4736;52.508;13.422;2022-09-09T02:53:35;8.60;;;8.10;;
9392;SDS011;4736;52.508;13.422;2022-09-09T02:56:47;8.53;;;8.03;;
9392;SDS011;4736;52.508;13.422;2022-09-09T02:59:56;9.53;;;8.83;;
9392;SDS011;4736;52.508;13.422;2022-09-09T03:03:01;9.80;;;9.10;;
9392;SDS011;4736;52.508;13.422;2022-09-09T03:06:05;8.27;;;7.80;;
9392;SDS011;4736;52.508;13.422;2022-09-09T03:09:08;7.77;;;7.27;;
9392;SDS011;4736;52.508;13.422;2022-09-09T03:12:11;10.03;;;9.27;;
9392;SDS011;4736;52.508;13.422;2022-09-09T03:15:15;9.67;;;9.07;;
9392;SDS011;4736;52.508;13.422;2022-09-09T03:18:20;9.23;;;8.60;;
9392;SDS011;4736;52.508;13.422;2022-09-09T03:21:22;11.33;;;10.53;;
9392;SDS011;4736;52.508;13.422;2022-09-09T03:24:25;9.30;;;8.67;;
9392;SDS011;4736;52.508;13.422;2022-09-09T03:27:29;9.83;;;8.97;;
9392;SDS011;4736;52.508;13.422;2022-09-09T03:30:32;10.90;;;10.10;;
9392;SDS011;4736;52.508;13.422;2022-09-09T03:33:36;10.50;;;9.63;;
9392;SDS011;4736;52.508;13.422;2022-09-09T03:36:40;9.33;;;8.57;;
9392;SDS011;4736;52.508;13.422;2022-09-09T03:39:50;8.83;;;8.33;;
9392;SDS011;4736;52.508;13.422;2022-09-09T03:42:56;8.57;;;8.07;;
9392;SDS011;4736;52.508;13.422;2022-09-09T03:45:59;7.80;;;7.37;;
9392;SDS011;4736;52.508;13.422;2022-09-09T03:49:04;8.30;;;7.80;;
9392;SDS011;4736;52.508;13.422;2022-09-09T03:52:08;8.33;;;7.80;;
9392;SDS011;4736;52.508;13.422;2022-09-09T03:55:14;7.90;;;7.43;;
9392;SDS011;4736;52.508;13.422;2022-09-09T03:58:17;9.27;;;8.57;;
9392;SDS011;4736;52.508;13.422;2022-09-09T04:01:20;8.10;;;7.53;;
9392;SDS011;4736;52.508;13.422;2022-09-09T04:04:24;8.70;;;8.20;;
9392;SDS011;4736;52.508;13.422;2022-09-09T04:07:28;7.47;;;7.13;;
9392;SDS011;4736;52.508;13.422;2022-09-09T04:10:31;7.47;;;7.07;;
9392;SDS011;4736;52.508;13.422;2022-09-09T04:13:34;7.23;;;6.90;;
9392;SDS011;4736;52.508;13.422;2022-09-09T04:16:38;6.50;;;6.20;;
9392;SDS011;4736;52.508;13.422;2022-09-09T04:19:47;6.87;;;6.57;;
9392;SDS011;4736;52.508;13.422;2022-09-09T04:22:50;5.87;;;5.63;;
9392;SDS011;4736;52.508;13.422;2022-09-09T04:25:53;6.50;;;6.30;;
9392;SDS011;4736;52.508;13.422;2022-09-09T04:28:57;7.17;;;6.77;;
9392;SDS011;4736;52.508;13.422;2022-09-09T04:32:01;6.40;;;6.13;;
9392;SDS011;4736;52.508;13.422;2022-09-09T04:35:06;5.77;;;5.53;;
9392;SDS011;4736;52.508;13.422;2022-09-09T04:38:12;5.80;;;5.60;;
9392;SDS011;4736;52.508;13.422;2022-09-09T04:41:18;6.07;;;5.77;;
9392;SDS011;4736;52.508;13.422;2022-09-09T04:44:22;6.33;;;6.13;;
9392;SDS011;4736;52.508;13.422;2022-09-09T04:47:26;6.67;;;6.33;;
9392;SDS011;4736;52.508;13.422;2022-09-09T04:50:30;6.63;;;6.33;;
9392;SDS011;4736;52.508;13.422;2022-09-09T04:53:33;7.97;;;7.57;;
9392;SDS011;4736;52.508;13.422;2022-09-09T04:56:36;6.60;;;6.20;;
9392;SDS011;4736;52.508;13.422;2022-09-09T04:59:39;9.87;;;9.03;;
9392;SDS011;4736;52.508;13.422;2022-09-09T05:02:42;7.33;;;7.00;;
9392;SDS011;4736;52.508;13.422;2022-09-09T05:05:47;8.50;;;8.00;;
9392;SDS011;4736;52.508;13.422;2022-09-09T05:08:50;8.67;;;8.07;;
9392;SDS011;4736;52.508;13.422;2022-09-09T05:11:53;8.63;;;8.03;;
9392;SDS011;4736;52.508;13.422;2022-09-09T05:14:57;7.53;;;7.10;;
9392;SDS011;4736;52.508;13.422;2022-09-09T05:18:00;7.07;;;6.67;;
9392;SDS011;4736;52.508;13.422;2022-09-09T05:21:06;7.13;;;6.77;;
9392;SDS011;4736;52.508;13.422;2022-09-09T05:24:09;6.07;;;5.83;;
9392;SDS011;4736;52.508;13.422;2022-09-09T05:27:13;6.97;;;6.50;;
9392;SDS011;4736;52.508;13.422;2022-09-09T05:30:16;8.23;;;7.63;;
9392;SDS011;4736;52.508;13.422;2022-09-09T05:33:20;6.50;;;6.20;;
9392;SDS011;4736;52.508;13.422;2022-09-09T05:36:24;6.70;;;6.40;;
9392;SDS011;4736;52.508;13.422;2022-09-09T05:39:27;6.87;;;6.53;;
9392;SDS011;4736;52.508;13.422;2022-09-09T05:42:30;7.03;;;6.57;;
9392;SDS011;4736;52.508;13.422;2022-09-09T05:45:34;6.37;;;6.00;;
9392;SDS011;4736;52.508;13.422;2022-09-09T05:48:37;7.63;;;7.00;;
9392;SDS011;4736;52.508;13.422;2022-09-09T05:51:42;6.20;;;6.00;;
9392;SDS011;4736;52.508;13.422;2022-09-09T05:54:45;7.73;;;7.03;;
9392;SDS011;4736;52.508;13.422;2022-09-09T05:57:50;7.67;;;6.93;;
9392;SDS011;4736;52.508;13.422;2022-09-09T06:00:59;6.30;;;5.97;;
9392;SDS011;4736;52.508;13.422;2022-09-09T06:04:04;6.83;;;6.33;;
9392;SDS011;4736;52.508;13.422;2022-09-09T06:07:08;6.90;;;6.30;;
9392;SDS011;4736;52.508;13.422;2022-09-09T06:10:11;8.80;;;5.07;;
9392;SDS011;4736;52.508;13.422;2022-09-09T06:13:15;5.93;;;5.60;;
9392;SDS011;4736;52.508;13.422;2022-09-09T06:16:19;6.97;;;5.63;;
9392;SDS011;4736;52.508;13.422;2022-09-09T06:19:25;5.03;;;4.70;;
9392;SDS011;4736;52.508;13.422;2022-09-09T06:22:29;5.97;;;5.57;;
9392;SDS011;4736;52.508;13.422;2022-09-09T06:25:32;5.00;;;4.80;;
9392;SDS011;4736;52.508;13.422;2022-09-09T06:28:35;5.27;;;4.77;;
9392;SDS011;4736;52.508;13.422;2022-09-09T06:31:39;5.30;;;4.80;;
9392;SDS011;4736;52.508;13.422;2022-09-09T06:34:42;5.30;;;4.87;;
9392;SDS011;4736;52.508;13.422;2022-09-09T06:37:47;5.10;;;4.67;;
9392;SDS011;4736;52.508;13.422;2022-09-09T06:40:51;5.70;;;4.67;;
9392;SDS011;4736;52.508;13.422;2022-09-09T06:43:56;7.90;;;4.90;;
9392;SDS011;4736;52.508;13.422;2022-09-09T06:46:59;4.83;;;4.43;;
9392;SDS011;4736;52.508;13.422;2022-09-09T06:50:02;5.73;;;4.70;;
9392;SDS011;4736;52.508;13.422;2022-09-09T06:53:07;4.93;;;4.57;;
9392;SDS011;4736;52.508;13.422;2022-09-09T06:56:18;6.43;;;4.57;;
9392;SDS011;4736;52.508;13.422;2022-09-09T06:59:22;4.60;;;4.30;;
9392;SDS011;4736;52.508;13.422;2022-09-09T07:02:25;4.27;;;3.97;;
9392;SDS011;4736;52.508;13.422;2022-09-09T07:05:29;4.20;;;3.90;;
9392;SDS011;4736;52.508;13.422;2022-09-09T07:08:33;4.53;;;4.23;;
9392;SDS011;4736;52.508;13.422;2022-09-09T07:11:37;3.67;;;3.47;;
9392;SDS011;4736;52.508;13.422;2022-09-09T07:14:42;4.73;;;4.30;;
9392;SDS011;4736;52.508;13.422;2022-09-09T07:17:46;3.73;;;3.53;;
9392;SDS011;4736;52.508;13.422;2022-09-09T07:20:52;3.83;;;3.53;;
9392;SDS011;4736;52.508;13.422;2022-09-09T07:23:59;3.80;;;3.40;;
9392;SDS011;4736;52.508;13.422;2022-09-09T07:27:03;3.53;;;3.33;;
9392;SDS011;4736;52.508;13.422;2022-09-09T07:30:08;3.30;;;3.20;;
9392;SDS011;4736;52.508;13.422;2022-09-09T07:33:18;4.07;;;3.77;;
9392;SDS011;4736;52.508;13.422;2022-09-09T07:36:22;5.00;;;3.60;;
9392;SDS011;4736;52.508;13.422;2022-09-09T07:39:34;4.97;;;3.23;;
9392;SDS011;4736;52.508;13.422;2022-09-09T07:42:37;4.60;;;3.57;;
9392;SDS011;4736;52.508;13.422;2022-09-09T07:45:40;3.70;;;3.50;;
9392;SDS011;4736;52.508;13.422;2022-09-09T07:48:44;4.83;;;3.40;;
9392;SDS011;4736;52.508;13.422;2022-09-09T07:51:47;2.80;;;2.80;;
9392;SDS011;4736;52.508;13.422;2022-09-09T07:54:52;3.37;;;3.17;;
9392;SDS011;4736;52.508;13.422;2022-09-09T07:58:08;3.40;;;3.10;;
9392;SDS011;4736;52.508;13.422;2022-09-09T08:01:17;3.30;;;3.20;;
9392;SDS011;4736;52.508;13.422;2022-09-09T08:04:22;6.27;;;3.10;;
9392;SDS011;4736;52.508;13.422;2022-09-09T08:07:27;3.47;;;3.03;;
9392;SDS011;4736;52.508;13.422;2022-09-09T08:10:31;3.57;;;3.10;;
9392;SDS011;4736;52.508;13.422;2022-09-09T08:13:34;3.33;;;3.03;;
9392;SDS011;4736;52.508;13.422;2022-09-09T08:16:39;3.33;;;3.10;;
9392;SDS011;4736;52.508;13.422;2022-09-09T08:19:53;3.40;;;3.10;;
9392;SDS011;4736;52.508;13.422;2022-09-09T08:22:56;3.43;;;3.17;;
9392;SDS011;4736;52.508;13.422;2022-09-09T08:26:04;3.40;;;3.00;;
9392;SDS011;4736;52.508;13.422;2022-09-09T08:29:10;3.13;;;2.93;;
9392;SDS011;4736;52.508;13.422;2022-09-09T08:32:15;3.90;;;2.97;;
9392;SDS011;4736;52.508;13.422;2022-09-09T08:35:20;3.47;;;3.10;;
9392;SDS011;4736;52.508;13.422;2022-09-09T08:38:22;2.80;;;2.50;;
9392;SDS011;4736;52.508;13.422;2022-09-09T08:41:37;2.97;;;2.77;;
9392;SDS011;4736;52.508;13.422;2022-09-09T08:45:20;3.37;;;3.13;;
9392;SDS011;4736;52.508;13.422;2022-09-09T08:48:39;2.97;;;2.77;;
9392;SDS011;4736;52.508;13.422;2022-09-09T08:51:49;3.60;;;3.20;;
9392;SDS011;4736;52.508;13.422;2022-09-09T08:54:52;3.60;;;3.30;;
9392;SDS011;4736;52.508;13.422;2022-09-09T08:58:02;3.23;;;3.03;;
9392;SDS011;4736;52.508;13.422;2022-09-09T09:01:22;3.67;;;3.10;;
9392;SDS011;4736;52.508;13.422;2022-09-09T09:04:49;3.40;;;3.10;;
9392;SDS011;4736;52.508;13.422;2022-09-09T09:08:03;5.87;;;3.20;;
9392;SDS011;4736;52.508;13.422;2022-09-09T09:11:13;3.67;;;3.47;;
9392;SDS011;4736;52.508;13.422;2022-09-09T09:14:18;3.97;;;3.00;;
9392;SDS011;4736;52.508;13.422;2022-09-09T09:17:25;2.90;;;2.70;;
9392;SDS011;4736;52.508;13.422;2022-09-09T09:20:34;3.30;;;3.03;;
9392;SDS011;4736;52.508;13.422;2022-09-09T09:23:47;3.90;;;3.50;;
9392;SDS011;4736;52.508;13.422;2022-09-09T09:26:56;2.60;;;2.50;;
9392;SDS011;4736;52.508;13.422;2022-09-09T09:30:05;3.27;;;2.73;;
9392;SDS011;4736;52.508;13.422;2022-09-09T09:33:30;2.80;;;2.60;;
9392;SDS011;4736;52.508;13.422;2022-09-09T09:36:39;4.60;;;3.10;;
9392;SDS011;4736;52.508;13.422;2022-09-09T09:39:45;2.47;;;2.27;;
9392;SDS011;4736;52.508;13.422;2022-09-09T09:43:05;3.43;;;2.70;;
9392;SDS011;4736;52.508;13.422;2022-09-09T09:46:19;5.13;;;2.70;;
9392;SDS011;4736;52.508;13.422;2022-09-09T09:49:24;2.70;;;2.50;;
9392;SDS011;4736;52.508;13.422;2022-09-09T09:52:28;2.50;;;2.40;;
9392;SDS011;4736;52.508;13.422;2022-09-09T09:55:33;2.73;;;2.53;;
9392;SDS011;4736;52.508;13.422;2022-09-09T09:58:47;3.03;;;2.80;;
9392;SDS011;4736;52.508;13.422;2022-09-09T10:02:10;2.97;;;2.77;;
9392;SDS011;4736;52.508;13.422;2022-09-09T10:05:20;5.20;;;3.00;;
9392;SDS011;4736;52.508;13.422;2022-09-09T10:08:27;4.60;;;2.93;;
9392;SDS011;4736;52.508;13.422;2022-09-09T10:11:39;3.07;;;2.77;;
9392;SDS011;4736;52.508;13.422;2022-09-09T10:14:52;3.10;;;2.90;;
9392;SDS011;4736;52.508;13.422;2022-09-09T10:18:12;3.73;;;2.70;;
9392;SDS011;4736;52.508;13.422;2022-09-09T10:25:15;5.03;;;2.60;;
9392;SDS011;4736;52.508;13.422;2022-09-09T10:28:33;2.70;;;2.60;;
9392;SDS011;4736;52.508;13.422;2022-09-09T10:31:51;2.80;;;2.60;;
9392;SDS011;4736;52.508;13.422;2022-09-09T10:35:01;2.90;;;2.70;;
9392;SDS011;4736;52.508;13.422;2022-09-09T10:38:14;2.80;;;2.30;;
9392;SDS011;4736;52.508;13.422;2022-09-09T10:41:20;3.10;;;2.90;;
9392;SDS011;4736;52.508;13.422;2022-09-09T10:44:38;3.00;;;2.80;;
9392;SDS011;4736;52.508;13.422;2022-09-09T10:47:56;2.40;;;2.20;;
9392;SDS011;4736;52.508;13.422;2022-09-09T10:51:23;2.30;;;2.10;;
9392;SDS011;4736;52.508;13.422;2022-09-09T10:54:38;2.17;;;2.07;;
9392;SDS011;4736;52.508;13.422;2022-09-09T10:57:52;2.40;;;2.30;;
9392;SDS011;4736;52.508;13.422;2022-09-09T11:01:00;2.53;;;2.33;;
9392;SDS011;4736;52.508;13.422;2022-09-09T11:04:13;4.87;;;2.57;;
9392;SDS011;4736;52.508;13.422;2022-09-09T11:07:28;4.13;;;2.47;;
9392;SDS011;4736;52.508;13.422;2022-09-09T11:10:38;2.33;;;2.23;;
9392;SDS011;4736;52.508;13.422;2022-09-09T11:13:47;5.03;;;2.40;;
9392;SDS011;4736;52.508;13.422;2022-09-09T11:16:56;3.50;;;2.53;;
9392;SDS011;4736;52.508;13.422;2022-09-09T11:20:04;5.00;;;2.50;;
9392;SDS011;4736;52.508;13.422;2022-09-09T11:23:11;3.80;;;2.77;;
9392;SDS011;4736;52.508;13.422;2022-09-09T11:26:18;3.13;;;2.50;;
9392;SDS011;4736;52.508;13.422;2022-09-09T11:33:23;2.80;;;2.60;;
9392;SDS011;4736;52.508;13.422;2022-09-09T11:36:54;2.93;;;2.30;;
9392;SDS011;4736;52.508;13.422;2022-09-09T11:40:18;4.10;;;2.33;;
9392;SDS011;4736;52.508;13.422;2022-09-09T11:43:26;4.67;;;2.60;;
9392;SDS011;4736;52.508;13.422;2022-09-09T11:46:32;2.67;;;2.47;;
9392;SDS011;4736;52.508;13.422;2022-09-09T11:49:42;2.23;;;2.13;;
9392;SDS011;4736;52.508;13.422;2022-09-09T11:52:49;2.30;;;2.20;;
9392;SDS011;4736;52.508;13.422;2022-09-09T11:56:10;5.50;;;2.40;;
9392;SDS011;4736;52.508;13.422;2022-09-09T11:59:20;3.07;;;2.77;;
9392;SDS011;4736;52.508;13.422;2022-09-09T12:02:25;2.47;;;2.37;;
9392;SDS011;4736;52.508;13.422;2022-09-09T12:05:36;2.70;;;2.53;;
9392;SDS011;4736;52.508;13.422;2022-09-09T12:08:44;2.03;;;1.93;;
9392;SDS011;4736;52.508;13.422;2022-09-09T12:11:51;2.13;;;2.10;;
9392;SDS011;4736;52.508;13.422;2022-09-09T12:14:55;2.40;;;2.30;;
9392;SDS011;4736;52.508;13.422;2022-09-09T12:18:01;2.63;;;2.33;;
9392;SDS011;4736;52.508;13.422;2022-09-09T12:21:12;2.63;;;2.47;;
9392;SDS011;4736;52.508;13.422;2022-09-09T12:24:24;3.77;;;2.40;;
9392;SDS011;4736;52.508;13.422;2022-09-09T12:27:42;2.33;;;2.23;;
9392;SDS011;4736;52.508;13.422;2022-09-09T12:30:55;2.23;;;2.13;;
9392;SDS011;4736;52.508;13.422;2022-09-09T12:34:09;3.00;;;2.50;;
9392;SDS011;4736;52.508;13.422;2022-09-09T12:37:15;1.90;;;1.80;;
9392;SDS011;4736;52.508;13.422;2022-09-09T12:40:23;2.17;;;1.97;;
9392;SDS011;4736;52.508;13.422;2022-09-09T12:43:29;2.30;;;2.10;;
9392;SDS011;4736;52.508;13.422;2022-09-09T12:46:33;4.10;;;2.73;;
9392;SDS011;4736;52.508;13.422;2022-09-09T12:49:38;1.93;;;1.60;;
9392;SDS011;4736;52.508;13.422;2022-09-09T12:52:42;4.40;;;2.60;;
9392;SDS011;4736;52.508;13.422;2022-09-09T12:55:49;3.13;;;1.77;;
9392;SDS011;4736;52.508;13.422;2022-09-09T12:58:55;2.13;;;2.03;;
9392;SDS011;4736;52.508;13.422;2022-09-09T13:02:00;1.93;;;1.83;;
9392;SDS011;4736;52.508;13.422;2022-09-09T13:05:06;2.10;;;2.10;;
9392;SDS011;4736;52.508;13.422;2022-09-09T13:08:18;2.73;;;2.30;;
9392;SDS011;4736;52.508;13.422;2022-09-09T13:11:22;1.70;;;1.70;;
9392;SDS011;4736;52.508;13.422;2022-09-09T13:14:31;4.23;;;2.20;;
9392;SDS011;4736;52.508;13.422;2022-09-09T13:17:41;2.07;;;2.00;;
9392;SDS011;4736;52.508;13.422;2022-09-09T13:20:46;1.83;;;1.73;;
9392;SDS011;4736;52.508;13.422;2022-09-09T13:23:50;2.23;;;2.13;;
9392;SDS011;4736;52.508;13.422;2022-09-09T13:26:54;2.33;;;2.10;;
9392;SDS011;4736;52.508;13.422;2022-09-09T13:30:00;2.50;;;2.30;;
9392;SDS011;4736;52.508;13.422;2022-09-09T13:33:04;2.20;;;2.00;;
9392;SDS011;4736;52.508;13.422;2022-09-09T13:36:28;2.67;;;1.90;;
9392;SDS011;4736;52.508;13.422;2022-09-09T13:39:33;2.37;;;2.27;;
9392;SDS011;4736;52.508;13.422;2022-09-09T13:42:39;2.33;;;2.23;;
9392;SDS011;4736;52.508;13.422;2022-09-09T13:45:51;4.07;;;2.30;;
9392;SDS011;4736;52.508;13.422;2022-09-09T13:48:57;1.90;;;1.80;;
9392;SDS011;4736;52.508;13.422;2022-09-09T13:52:05;1.93;;;1.83;;
9392;SDS011;4736;52.508;13.422;2022-09-09T13:55:13;4.77;;;1.90;;
9392;SDS011;4736;52.508;13.422;2022-09-09T13:58:16;1.97;;;1.80;;
9392;SDS011;4736;52.508;13.422;2022-09-09T14:01:21;2.43;;;1.60;;
9392;SDS011;4736;52.508;13.422;2022-09-09T14:04:29;4.23;;;2.03;;
9392;SDS011;4736;52.508;13.422;2022-09-09T14:07:32;2.70;;;2.07;;
9392;SDS011;4736;52.508;13.422;2022-09-09T14:10:36;2.40;;;1.70;;
9392;SDS011;4736;52.508;13.422;2022-09-09T14:13:39;2.40;;;2.20;;
9392;SDS011;4736;52.508;13.422;2022-09-09T14:16:43;2.40;;;2.20;;
9392;SDS011;4736;52.508;13.422;2022-09-09T14:19:46;3.50;;;1.87;;
9392;SDS011;4736;52.508;13.422;2022-09-09T14:22:49;3.30;;;2.23;;
9392;SDS011;4736;52.508;13.422;2022-09-09T14:25:52;2.87;;;2.60;;
9392;SDS011;4736;52.508;13.422;2022-09-09T14:28:55;2.47;;;2.37;;
9392;SDS011;4736;52.508;13.422;2022-09-09T14:32:04;2.00;;;1.83;;
9392;SDS011;4736;52.508;13.422;2022-09-09T14:35:13;2.43;;;2.30;;
9392;SDS011;4736;52.508;13.422;2022-09-09T14:38:16;2.13;;;2.03;;
9392;SDS011;4736;52.508;13.422;2022-09-09T14:41:20;3.07;;;1.93;;
9392;SDS011;4736;52.508;13.422;2022-09-09T14:44:24;2.60;;;1.70;;
9392;SDS011;4736;52.508;13.422;2022-09-09T14:47:28;2.57;;;2.10;;
9392;SDS011;4736;52.508;13.422;2022-09-09T14:50:32;2.40;;;2.17;;
9392;SDS011;4736;52.508;13.422;2022-09-09T14:53:41;3.30;;;2.47;;
9392;SDS011;4736;52.508;13.422;2022-09-09T14:56:44;2.40;;;2.20;;
9392;SDS011;4736;52.508;13.422;2022-09-09T14:59:49;2.97;;;2.00;;
9392;SDS011;4736;52.508;13.422;2022-09-09T15:02:53;2.50;;;2.40;;
9392;SDS011;4736;52.508;13.422;2022-09-09T15:05:57;2.00;;;1.73;;
9392;SDS011;4736;52.508;13.422;2022-09-09T15:09:00;5.00;;;2.30;;
9392;SDS011;4736;52.508;13.422;2022-09-09T15:12:04;1.80;;;1.70;;
9392;SDS011;4736;52.508;13.422;2022-09-09T15:15:07;3.10;;;2.27;;
9392;SDS011;4736;52.508;13.422;2022-09-09T15:18:12;3.13;;;2.10;;
9392;SDS011;4736;52.508;13.422;2022-09-09T15:21:17;3.60;;;2.30;;
9392;SDS011;4736;52.508;13.422;2022-09-09T15:24:21;1.90;;;1.80;;
9392;SDS011;4736;52.508;13.422;2022-09-09T15:27:24;1.90;;;1.80;;
9392;SDS011;4736;52.508;13.422;2022-09-09T15:30:27;2.13;;;2.03;;
9392;SDS011;4736;52.508;13.422;2022-09-09T15:33:33;3.07;;;2.50;;
9392;SDS011;4736;52.508;13.422;2022-09-09T15:36:38;2.33;;;2.20;;
9392;SDS011;4736;52.508;13.422;2022-09-09T15:39:43;1.97;;;1.87;;
9392;SDS011;4736;52.508;13.422;2022-09-09T15:42:49;2.07;;;1.93;;
9392;SDS011;4736;52.508;13.422;2022-09-09T15:45:52;2.83;;;2.73;;
9392;SDS011;4736;52.508;13.422;2022-09-09T15:49:04;2.30;;;2.10;;
9392;SDS011;4736;52.508;13.422;2022-09-09T15:52:10;2.33;;;2.17;;
9392;SDS011;4736;52.508;13.422;2022-09-09T15:55:13;2.33;;;2.23;;
9392;SDS011;4736;52.508;13.422;2022-09-09T15:58:16;1.87;;;1.87;;
9392;SDS011;4736;52.508;13.422;2022-09-09T16:01:19;2.17;;;1.97;;
9392;SDS011;4736;52.508;13.422;2022-09-09T16:04:23;2.00;;;1.90;;
9392;SDS011;4736;52.508;13.422;2022-09-09T16:07:26;4.60;;;2.27;;
9392;SDS011;4736;52.508;13.422;2022-09-09T16:10:29;2.57;;;2.47;;
9392;SDS011;4736;52.508;13.422;2022-09-09T16:13:33;1.77;;;1.77;;
9392;SDS011;4736;52.508;13.422;2022-09-09T16:16:36;2.77;;;2.13;;
9392;SDS011;4736;52.508;13.422;2022-09-09T16:19:40;2.13;;;2.03;;
9392;SDS011;4736;52.508;13.422;2022-09-09T16:22:43;2.10;;;2.00;;
9392;SDS011;4736;52.508;13.422;2022-09-09T16:25:52;2.30;;;2.20;;
9392;SDS011;4736;52.508;13.422;2022-09-09T16:29:00;1.97;;;1.87;;
9392;SDS011;4736;52.508;13.422;2022-09-09T16:32:03;2.17;;;2.07;;
9392;SDS011;4736;52.508;13.422;2022-09-09T16:35:10;2.37;;;2.20;;
9392;SDS011;4736;52.508;13.422;2022-09-09T16:38:14;2.10;;;2.00;;
9392;SDS011;4736;52.508;13.422;2022-09-09T16:41:18;2.30;;;2.20;;
9392;SDS011;4736;52.508;13.422;2022-09-09T16:44:21;2.60;;;2.50;;
9392;SDS011;4736;52.508;13.422;2022-09-09T16:47:24;2.57;;;2.47;;
9392;SDS011;4736;52.508;13.422;2022-09-09T16:50:28;2.57;;;2.43;;
9392;SDS011;4736;52.508;13.422;2022-09-09T16:53:33;2.20;;;2.10;;
9392;SDS011;4736;52.508;13.422;2022-09-09T16:56:40;2.77;;;2.57;;
9392;SDS011;4736;52.508;13.422;2022-09-09T16:59:44;2.60;;;2.50;;
9392;SDS011;4736;52.508;13.422;2022-09-09T17:02:47;2.30;;;2.20;;
9392;SDS011;4736;52.508;13.422;2022-09-09T17:05:51;2.87;;;2.77;;
9392;SDS011;4736;52.508;13.422;2022-09-09T17:08:58;2.80;;;2.60;;
9392;SDS011;4736;52.508;13.422;2022-09-09T17:12:02;4.53;;;2.70;;
9392;SDS011;4736;52.508;13.422;2022-09-09T17:15:06;3.23;;;2.93;;
9392;SDS011;4736;52.508;13.422;2022-09-09T17:18:16;6.60;;;2.97;;
9392;SDS011;4736;52.508;13.422;2022-09-09T17:21:21;2.33;;;2.23;;
9392;SDS011;4736;52.508;13.422;2022-09-09T17:24:26;3.53;;;2.40;;
9392;SDS011;4736;52.508;13.422;2022-09-09T17:27:30;2.90;;;2.60;;
9392;SDS011;4736;52.508;13.422;2022-09-09T17:30:34;2.43;;;2.33;;
9392;SDS011;4736;52.508;13.422;2022-09-09T17:33:40;2.80;;;2.70;;
9392;SDS011;4736;52.508;13.422;2022-09-09T17:36:48;6.10;;;3.03;;
9392;SDS011;4736;52.508;13.422;2022-09-09T17:39:54;3.00;;;2.80;;
9392;SDS011;4736;52.508;13.422;2022-09-09T17:42:59;2.90;;;2.70;;
9392;SDS011;4736;52.508;13.422;2022-09-09T17:46:06;5.03;;;4.60;;
9392;SDS011;4736;52.508;13.422;2022-09-09T17:49:11;4.87;;;4.00;;
9392;SDS011;4736;52.508;13.422;2022-09-09T17:52:16;2.73;;;2.57;;
9392;SDS011;4736;52.508;13.422;2022-09-09T17:55:23;2.90;;;2.70;;
9392;SDS011;4736;52.508;13.422;2022-09-09T17:58:26;2.17;;;2.13;;
9392;SDS011;4736;52.508;13.422;2022-09-09T18:01:30;2.27;;;2.10;;
9392;SDS011;4736;52.508;13.422;2022-09-09T18:04:46;2.00;;;2.00;;
9392;SDS011;4736;52.508;13.422;2022-09-09T18:07:50;2.93;;;2.00;;
9392;SDS011;4736;52.508;13.422;2022-09-09T18:10:53;2.20;;;2.00;;
9392;SDS011;4736;52.508;13.422;2022-09-09T18:13:57;2.27;;;2.17;;
9392;SDS011;4736;52.508;13.422;2022-09-09T18:17:02;2.10;;;2.00;;
9392;SDS011;4736;52.508;13.422;2022-09-09T18:20:06;3.30;;;2.33;;
9392;SDS011;4736;52.508;13.422;2022-09-09T18:23:11;2.50;;;2.30;;
9392;SDS011;4736;52.508;13.422;2022-09-09T18:26:15;2.57;;;2.40;;
9392;SDS011;4736;52.508;13.422;2022-09-09T18:29:20;2.80;;;2.50;;
9392;SDS011;4736;52.508;13.422;2022-09-09T18:32:25;2.93;;;2.63;;
9392;SDS011;4736;52.508;13.422;2022-09-09T18:35:28;2.60;;;2.40;;
9392;SDS011;4736;52.508;13.422;2022-09-09T18:38:33;2.60;;;2.50;;
9392;SDS011;4736;52.508;13.422;2022-09-09T18:41:38;2.70;;;2.60;;
9392;SDS011;4736;52.508;13.422;2022-09-09T18:44:43;2.83;;;2.67;;
9392;SDS011;4736;52.508;13.422;2022-09-09T18:47:46;2.93;;;2.80;;
9392;SDS011;4736;52.508;13.422;2022-09-09T18:50:49;3.63;;;3.30;;
9392;SDS011;4736;52.508;13.422;2022-09-09T18:53:55;3.23;;;3.00;;
9392;SDS011;4736;52.508;13.422;2022-09-09T18:57:00;3.13;;;2.93;;
9392;SDS011;4736;52.508;13.422;2022-09-09T19:00:04;3.50;;;3.07;;
9392;SDS011;4736;52.508;13.422;2022-09-09T19:03:09;6.07;;;3.37;;
9392;SDS011;4736;52.508;13.422;2022-09-09T19:06:14;3.27;;;3.17;;
9392;SDS011;4736;52.508;13.422;2022-09-09T19:09:20;3.33;;;2.93;;
9392;SDS011;4736;52.508;13.422;2022-09-09T19:12:29;2.93;;;2.83;;
9392;SDS011;4736;52.508;13.422;2022-09-09T19:15:34;3.13;;;2.90;;
9392;SDS011;4736;52.508;13.422;2022-09-09T19:18:37;3.03;;;2.93;;